sensor_id;sensor_type;location;lat;lon;timestamp;pressure;altitude;pressure_sealevel;temperature;humidity
21828;BME280;11076;47.942;11.804;2023-06-04T00:02:37;94315.69;;;11.77;80.73
21828;BME280;11076;47.942;11.804;2023-06-04T00:07:39;94311.81;;;11.61;80.67
21828;BME280;11076;47.942;11.804;2023-06-04T00:12:42;94298.03;;;11.58;81.48
21828;BME280;11076;47.942;11.804;2023-06-04T00:17:44;94316.13;;;11.62;81.28
21828;BME280;11076;47.942;11.804;2023-06-04T00:22:47;94316.84;;;11.69;80.49
21828;BME280;11076;47.942;11.804;2023-06-04T00:27:49;94304.03;;;11.71;79.95
21828;BME280;11076;47.942;11.804;2023-06-04T00:32:52;94298.28;;;11.56;79.82
21828;BME280;11076;47.942;11.804;2023-06-04T00:37:54;94296.09;;;11.34;79.92
21828;BME280;11076;47.942;11.804;2023-06-04T00:42:57;94298.19;;;11.14;80.51
21828;BME280;11076;47.942;11.804;2023-06-04T00:47:59;94301.50;;;11.16;80.65
21828;BME280;11076;47.942;11.804;2023-06-04T00:53:02;94299.53;;;11.23;80.01
21828;BME280;11076;47.942;11.804;2023-06-04T00:58:04;94302.78;;;11.25;79.96
21828;BME280;11076;47.942;11.804;2023-06-04T01:03:13;94306.00;;;11.15;80.14
21828;BME280;11076;47.942;11.804;2023-06-04T01:08:18;94309.78;;;11.08;80.40
21828;BME280;11076;47.942;11.804;2023-06-04T01:13:20;94311.28;;;11.04;80.22
21828;BME280;11076;47.942;11.804;2023-06-04T01:18:26;94300.28;;;10.93;80.10
21828;BME280;11076;47.942;11.804;2023-06-04T01:23:46;94301.63;;;10.84;80.70
21828;BME280;11076;47.942;11.804;2023-06-04T01:28:52;94291.66;;;10.73;80.74
21828;BME280;11076;47.942;11.804;2023-06-04T01:33:56;94308.38;;;10.68;80.58
21828;BME280;11076;47.942;11.804;2023-06-04T01:39:00;94302.66;;;10.65;80.20
21828;BME280;11076;47.942;11.804;2023-06-04T01:44:03;94302.66;;;10.65;80.61
21828;BME280;11076;47.942;11.804;2023-06-04T01:49:05;94300.63;;;10.60;80.80
21828;BME280;11076;47.942;11.804;2023-06-04T01:54:08;94296.56;;;10.58;80.64
21828;BME280;11076;47.942;11.804;2023-06-04T01:59:10;94297.31;;;10.65;80.42
21828;BME280;11076;47.942;11.804;2023-06-04T02:04:14;94308.13;;;10.51;80.65
21828;BME280;11076;47.942;11.804;2023-06-04T02:09:16;94307.59;;;10.43;80.54
21828;BME280;11076;47.942;11.804;2023-06-04T02:14:18;94322.59;;;10.44;81.17
21828;BME280;11076;47.942;11.804;2023-06-04T02:19:21;94317.69;;;10.41;80.96
21828;BME280;11076;47.942;11.804;2023-06-04T02:24:23;94315.38;;;10.44;81.22
21828;BME280;11076;47.942;11.804;2023-06-04T02:29:26;94325.38;;;10.30;82.09
21828;BME280;11076;47.942;11.804;2023-06-04T02:34:28;94321.94;;;10.16;81.73
21828;BME280;11076;47.942;11.804;2023-06-04T02:39:31;94323.75;;;9.98;82.93
21828;BME280;11076;47.942;11.804;2023-06-04T02:44:33;94328.41;;;9.77;83.63
21828;BME280;11076;47.942;11.804;2023-06-04T02:49:35;94324.88;;;9.83;82.75
21828;BME280;11076;47.942;11.804;2023-06-04T02:54:38;94319.81;;;9.68;83.81
21828;BME280;11076;47.942;11.804;2023-06-04T02:59:40;94323.97;;;9.64;83.36
21828;BME280;11076;47.942;11.804;2023-06-04T03:04:43;94324.03;;;9.51;83.97
21828;BME280;11076;47.942;11.804;2023-06-04T03:09:46;94326.53;;;9.46;84.19
21828;BME280;11076;47.942;11.804;2023-06-04T03:14:49;94329.63;;;9.43;84.54
21828;BME280;11076;47.942;11.804;2023-06-04T03:19:52;94336.16;;;9.47;84.23
21828;BME280;11076;47.942;11.804;2023-06-04T03:24:54;94343.41;;;9.40;84.87
21828;BME280;11076;47.942;11.804;2023-06-04T03:29:57;94343.81;;;9.36;85.44
21828;BME280;11076;47.942;11.804;2023-06-04T03:35:00;94349.94;;;9.44;84.93
21828;BME280;11076;47.942;11.804;2023-06-04T03:40:04;94354.63;;;9.55;85.58
21828;BME280;11076;47.942;11.804;2023-06-04T03:45:11;94365.47;;;9.60;85.67
21828;BME280;11076;47.942;11.804;2023-06-04T03:50:13;94359.88;;;9.68;85.27
21828;BME280;11076;47.942;11.804;2023-06-04T03:55:16;94362.06;;;9.78;84.67
21828;BME280;11076;47.942;11.804;2023-06-04T04:00:20;94354.19;;;9.90;85.19
21828;BME280;11076;47.942;11.804;2023-06-04T04:05:25;94358.69;;;9.96;85.44
21828;BME280;11076;47.942;11.804;2023-06-04T04:10:28;94354.47;;;10.13;84.98
21828;BME280;11076;47.942;11.804;2023-06-04T04:15:32;94367.91;;;10.32;84.38
21828;BME280;11076;47.942;11.804;2023-06-04T04:20:37;94362.88;;;10.42;84.27
21828;BME280;11076;47.942;11.804;2023-06-04T04:25:43;94365.56;;;10.67;83.18
21828;BME280;11076;47.942;11.804;2023-06-04T04:30:47;94367.00;;;10.88;83.14
21828;BME280;11076;47.942;11.804;2023-06-04T04:35:51;94365.84;;;11.21;82.09
21828;BME280;11076;47.942;11.804;2023-06-04T04:40:57;94365.66;;;12.32;79.69
21828;BME280;11076;47.942;11.804;2023-06-04T04:46:03;94367.00;;;13.64;76.26
21828;BME280;11076;47.942;11.804;2023-06-04T04:51:06;94375.78;;;13.60;76.13
21828;BME280;11076;47.942;11.804;2023-06-04T04:56:09;94377.06;;;13.98;73.58
21828;BME280;11076;47.942;11.804;2023-06-04T05:01:15;94375.81;;;16.24;67.98
21828;BME280;11076;47.942;11.804;2023-06-04T05:06:19;94372.28;;;15.13;69.47
21828;BME280;11076;47.942;11.804;2023-06-04T05:11:22;94388.13;;;14.59;68.59
21828;BME280;11076;47.942;11.804;2023-06-04T05:16:24;94391.34;;;16.98;65.14
21828;BME280;11076;47.942;11.804;2023-06-04T05:21:30;94372.78;;;22.41;49.84
21828;BME280;11076;47.942;11.804;2023-06-04T05:26:37;94371.59;;;23.98;44.39
21828;BME280;11076;47.942;11.804;2023-06-04T05:31:48;94379.22;;;25.47;40.89
21828;BME280;11076;47.942;11.804;2023-06-04T05:36:53;94379.69;;;26.69;37.67
21828;BME280;11076;47.942;11.804;2023-06-04T05:41:56;94391.25;;;27.88;34.42
21828;BME280;11076;47.942;11.804;2023-06-04T05:46:58;94387.34;;;28.87;32.52
21828;BME280;11076;47.942;11.804;2023-06-04T05:52:02;94395.63;;;29.62;31.31
21828;BME280;11076;47.942;11.804;2023-06-04T05:57:05;94402.06;;;29.66;30.78
21828;BME280;11076;47.942;11.804;2023-06-04T06:02:08;94390.19;;;30.45;29.42
21828;BME280;11076;47.942;11.804;2023-06-04T06:07:12;94389.25;;;30.53;28.15
21828;BME280;11076;47.942;11.804;2023-06-04T06:12:15;94385.09;;;30.71;28.54
21828;BME280;11076;47.942;11.804;2023-06-04T06:17:18;94401.72;;;29.68;29.18
21828;BME280;11076;47.942;11.804;2023-06-04T06:22:22;94405.91;;;29.74;29.66
21828;BME280;11076;47.942;11.804;2023-06-04T06:27:24;94408.91;;;27.52;30.80
21828;BME280;11076;47.942;11.804;2023-06-04T06:32:27;94434.22;;;22.29;38.94
21828;BME280;11076;47.942;11.804;2023-06-04T06:37:30;94439.44;;;20.03;44.59
21828;BME280;11076;47.942;11.804;2023-06-04T06:42:33;94438.94;;;19.71;45.95
21828;BME280;11076;47.942;11.804;2023-06-04T06:47:36;94433.59;;;19.40;47.59
21828;BME280;11076;47.942;11.804;2023-06-04T06:52:38;94436.28;;;19.35;48.63
21828;BME280;11076;47.942;11.804;2023-06-04T06:57:40;94442.81;;;19.03;50.31
21828;BME280;11076;47.942;11.804;2023-06-04T07:02:43;94443.31;;;18.90;52.11
21828;BME280;11076;47.942;11.804;2023-06-04T07:07:45;94448.72;;;18.79;53.37
21828;BME280;11076;47.942;11.804;2023-06-04T07:12:48;94445.50;;;18.82;54.11
21828;BME280;11076;47.942;11.804;2023-06-04T07:17:51;94445.50;;;19.03;54.80
21828;BME280;11076;47.942;11.804;2023-06-04T07:22:53;94445.50;;;19.23;54.60
21828;BME280;11076;47.942;11.804;2023-06-04T07:27:56;94446.31;;;19.39;54.95
21828;BME280;11076;47.942;11.804;2023-06-04T07:33:01;94441.16;;;19.43;55.87
21828;BME280;11076;47.942;11.804;2023-06-04T07:38:03;94446.59;;;19.38;56.04
21828;BME280;11076;47.942;11.804;2023-06-04T07:43:06;94446.59;;;19.38;57.00
21828;BME280;11076;47.942;11.804;2023-06-04T07:48:11;94449.84;;;19.50;57.08
21828;BME280;11076;47.942;11.804;2023-06-04T07:53:14;94450.38;;;19.73;57.11
21828;BME280;11076;47.942;11.804;2023-06-04T07:58:16;94439.50;;;19.88;56.80
21828;BME280;11076;47.942;11.804;2023-06-04T08:03:19;94434.88;;;19.89;57.02
21828;BME280;11076;47.942;11.804;2023-06-04T08:08:22;94432.72;;;19.80;56.96
21828;BME280;11076;47.942;11.804;2023-06-04T08:13:25;94442.94;;;20.09;56.85
21828;BME280;11076;47.942;11.804;2023-06-04T08:18:28;94439.25;;;20.44;57.46
21828;BME280;11076;47.942;11.804;2023-06-04T08:23:30;94437.13;;;20.41;57.15
21828;BME280;11076;47.942;11.804;2023-06-04T08:28:33;94451.72;;;20.51;54.97
21828;BME280;11076;47.942;11.804;2023-06-04T08:33:35;94443.56;;;20.51;55.29
21828;BME280;11076;47.942;11.804;2023-06-04T08:38:38;94443.59;;;20.45;53.97
21828;BME280;11076;47.942;11.804;2023-06-04T08:43:41;94443.28;;;20.52;53.19
21828;BME280;11076;47.942;11.804;2023-06-04T08:48:46;94446.84;;;20.48;51.99
21828;BME280;11076;47.942;11.804;2023-06-04T08:53:48;94450.56;;;20.67;52.10
21828;BME280;11076;47.942;11.804;2023-06-04T08:59:03;94455.88;;;20.88;51.84
21828;BME280;11076;47.942;11.804;2023-06-04T09:04:06;94454.75;;;20.94;48.20
21828;BME280;11076;47.942;11.804;2023-06-04T09:09:12;94450.38;;;20.98;49.14
21828;BME280;11076;47.942;11.804;2023-06-04T09:14:18;94457.38;;;21.09;48.55
21828;BME280;11076;47.942;11.804;2023-06-04T09:19:21;94447.63;;;21.03;46.73
21828;BME280;11076;47.942;11.804;2023-06-04T09:24:25;94451.94;;;21.09;47.31
21828;BME280;11076;47.942;11.804;2023-06-04T09:29:27;94456.06;;;21.36;46.84
21828;BME280;11076;47.942;11.804;2023-06-04T09:34:30;94449.53;;;21.37;45.93
21828;BME280;11076;47.942;11.804;2023-06-04T09:39:35;94453.16;;;21.27;46.00
21828;BME280;11076;47.942;11.804;2023-06-04T09:44:44;94452.19;;;21.47;44.60
21828;BME280;11076;47.942;11.804;2023-06-04T09:49:49;94446.25;;;21.40;44.37
21828;BME280;11076;47.942;11.804;2023-06-04T09:54:53;94444.81;;;21.53;43.46
21828;BME280;11076;47.942;11.804;2023-06-04T09:59:55;94440.63;;;21.60;43.48
21828;BME280;11076;47.942;11.804;2023-06-04T10:04:59;94440.44;;;21.81;43.45
21828;BME280;11076;47.942;11.804;2023-06-04T10:10:02;94438.94;;;22.18;44.37
21828;BME280;11076;47.942;11.804;2023-06-04T10:15:12;94433.81;;;22.40;43.17
21828;BME280;11076;47.942;11.804;2023-06-04T10:20:16;94434.66;;;22.12;43.44
21828;BME280;11076;47.942;11.804;2023-06-04T10:25:19;94435.59;;;22.26;44.29
21828;BME280;11076;47.942;11.804;2023-06-04T10:30:22;94429.03;;;22.51;42.47
21828;BME280;11076;47.942;11.804;2023-06-04T10:35:35;94435.38;;;22.47;41.76
21828;BME280;11076;47.942;11.804;2023-06-04T10:40:38;94438.41;;;22.83;39.76
21828;BME280;11076;47.942;11.804;2023-06-04T10:45:40;94436.91;;;22.72;42.22
21828;BME280;11076;47.942;11.804;2023-06-04T10:50:50;94427.09;;;22.52;41.88
21828;BME280;11076;47.942;11.804;2023-06-04T10:55:55;94427.34;;;22.55;42.04
21828;BME280;11076;47.942;11.804;2023-06-04T11:00:57;94432.06;;;22.69;40.59
21828;BME280;11076;47.942;11.804;2023-06-04T11:06:00;94427.00;;;23.00;41.74
21828;BME280;11076;47.942;11.804;2023-06-04T11:11:10;94426.16;;;22.99;41.10
21828;BME280;11076;47.942;11.804;2023-06-04T11:16:17;94428.47;;;22.92;39.97
21828;BME280;11076;47.942;11.804;2023-06-04T11:21:20;94421.97;;;23.26;40.50
21828;BME280;11076;47.942;11.804;2023-06-04T11:26:33;94421.66;;;23.28;39.52
21828;BME280;11076;47.942;11.804;2023-06-04T11:31:51;94420.16;;;23.02;38.73
21828;BME280;11076;47.942;11.804;2023-06-04T11:36:54;94420.97;;;23.03;39.43
21828;BME280;11076;47.942;11.804;2023-06-04T11:41:56;94413.47;;;23.60;39.78
21828;BME280;11076;47.942;11.804;2023-06-04T11:46:59;94408.50;;;23.81;39.02
21828;BME280;11076;47.942;11.804;2023-06-04T11:52:01;94412.44;;;23.56;39.18
21828;BME280;11076;47.942;11.804;2023-06-04T11:57:04;94405.00;;;23.29;40.14
21828;BME280;11076;47.942;11.804;2023-06-04T12:02:07;94405.09;;;23.24;38.37
21828;BME280;11076;47.942;11.804;2023-06-04T12:07:09;94393.41;;;23.37;39.48
21828;BME280;11076;47.942;11.804;2023-06-04T12:12:13;94396.97;;;23.85;39.62
21828;BME280;11076;47.942;11.804;2023-06-04T12:17:17;94385.09;;;24.45;37.89
21828;BME280;11076;47.942;11.804;2023-06-04T12:22:19;94389.06;;;24.11;38.28
21828;BME280;11076;47.942;11.804;2023-06-04T12:27:25;94386.03;;;24.26;38.35
21828;BME280;11076;47.942;11.804;2023-06-04T12:32:28;94391.78;;;24.38;38.70
21828;BME280;11076;47.942;11.804;2023-06-04T12:37:31;94392.84;;;24.79;38.35
21828;BME280;11076;47.942;11.804;2023-06-04T12:42:33;94387.31;;;24.93;38.47
21828;BME280;11076;47.942;11.804;2023-06-04T12:47:35;94380.84;;;24.38;35.43
21828;BME280;11076;47.942;11.804;2023-06-04T12:52:38;94384.56;;;24.70;35.93
21828;BME280;11076;47.942;11.804;2023-06-04T12:57:40;94390.41;;;23.99;37.10
21828;BME280;11076;47.942;11.804;2023-06-04T13:02:44;94385.09;;;23.29;36.21
21828;BME280;11076;47.942;11.804;2023-06-04T13:07:47;94384.09;;;23.85;37.24
21828;BME280;11076;47.942;11.804;2023-06-04T13:12:49;94371.13;;;23.77;35.89
21828;BME280;11076;47.942;11.804;2023-06-04T13:17:52;94371.69;;;24.07;36.63
21828;BME280;11076;47.942;11.804;2023-06-04T13:22:54;94378.50;;;24.73;35.74
21828;BME280;11076;47.942;11.804;2023-06-04T13:27:57;94373.97;;;24.91;35.79
21828;BME280;11076;47.942;11.804;2023-06-04T13:32:59;94375.06;;;24.90;33.97
21828;BME280;11076;47.942;11.804;2023-06-04T13:38:04;94382.44;;;25.04;35.48
21828;BME280;11076;47.942;11.804;2023-06-04T13:43:08;94373.78;;;25.55;35.43
21828;BME280;11076;47.942;11.804;2023-06-04T13:48:11;94363.13;;;25.85;34.83
21828;BME280;11076;47.942;11.804;2023-06-04T13:53:14;94381.09;;;25.69;33.02
21828;BME280;11076;47.942;11.804;2023-06-04T13:58:16;94375.41;;;25.34;34.76
21828;BME280;11076;47.942;11.804;2023-06-04T14:03:19;94369.50;;;24.59;34.19
21828;BME280;11076;47.942;11.804;2023-06-04T14:08:21;94368.50;;;24.55;36.71
21828;BME280;11076;47.942;11.804;2023-06-04T14:13:24;94376.56;;;24.96;35.23
21828;BME280;11076;47.942;11.804;2023-06-04T14:18:26;94362.00;;;25.24;34.14
21828;BME280;11076;47.942;11.804;2023-06-04T14:23:31;94363.84;;;24.92;32.78
21828;BME280;11076;47.942;11.804;2023-06-04T14:28:33;94359.03;;;25.20;32.65
21828;BME280;11076;47.942;11.804;2023-06-04T14:33:36;94362.97;;;25.05;32.98
21828;BME280;11076;47.942;11.804;2023-06-04T14:38:39;94353.06;;;25.40;31.69
21828;BME280;11076;47.942;11.804;2023-06-04T14:43:42;94349.28;;;24.83;32.42
21828;BME280;11076;47.942;11.804;2023-06-04T14:48:44;94346.38;;;25.01;31.24
21828;BME280;11076;47.942;11.804;2023-06-04T14:53:46;94348.56;;;25.36;32.19
21828;BME280;11076;47.942;11.804;2023-06-04T14:58:49;94354.50;;;25.60;33.73
21828;BME280;11076;47.942;11.804;2023-06-04T15:03:51;94353.16;;;24.81;34.68
21828;BME280;11076;47.942;11.804;2023-06-04T15:08:54;94353.53;;;24.52;34.27
21828;BME280;11076;47.942;11.804;2023-06-04T15:13:56;94349.41;;;24.27;34.89
21828;BME280;11076;47.942;11.804;2023-06-04T15:18:59;94352.03;;;24.32;34.68
21828;BME280;11076;47.942;11.804;2023-06-04T15:24:01;94361.13;;;24.41;33.39
21828;BME280;11076;47.942;11.804;2023-06-04T15:29:04;94356.72;;;24.18;32.76
21828;BME280;11076;47.942;11.804;2023-06-04T15:34:08;94355.69;;;24.28;32.48
21828;BME280;11076;47.942;11.804;2023-06-04T15:39:10;94354.19;;;23.80;32.82
21828;BME280;11076;47.942;11.804;2023-06-04T15:44:13;94353.81;;;23.40;32.67
21828;BME280;11076;47.942;11.804;2023-06-04T15:49:15;94356.69;;;22.97;33.17
21828;BME280;11076;47.942;11.804;2023-06-04T15:54:19;94362.09;;;22.64;34.59
21828;BME280;11076;47.942;11.804;2023-06-04T15:59:25;94365.38;;;22.66;35.59
21828;BME280;11076;47.942;11.804;2023-06-04T16:04:28;94368.28;;;22.70;35.83
21828;BME280;11076;47.942;11.804;2023-06-04T16:09:30;94370.72;;;22.71;36.26
21828;BME280;11076;47.942;11.804;2023-06-04T16:14:32;94358.56;;;22.82;35.72
21828;BME280;11076;47.942;11.804;2023-06-04T16:19:35;94355.69;;;22.93;36.50
21828;BME280;11076;47.942;11.804;2023-06-04T16:24:37;94350.66;;;23.00;36.36
21828;BME280;11076;47.942;11.804;2023-06-04T16:29:40;94353.38;;;23.00;36.74
21828;BME280;11076;47.942;11.804;2023-06-04T16:34:42;94341.69;;;22.80;36.23
21828;BME280;11076;47.942;11.804;2023-06-04T16:39:44;94339.72;;;22.67;37.13
21828;BME280;11076;47.942;11.804;2023-06-04T16:44:47;94332.94;;;22.46;37.79
21828;BME280;11076;47.942;11.804;2023-06-04T16:49:51;94339.50;;;22.01;38.08
21828;BME280;11076;47.942;11.804;2023-06-04T16:54:54;94340.53;;;21.87;38.61
21828;BME280;11076;47.942;11.804;2023-06-04T16:59:57;94336.34;;;21.70;38.70
21828;BME280;11076;47.942;11.804;2023-06-04T17:05:00;94339.59;;;21.48;39.65
21828;BME280;11076;47.942;11.804;2023-06-04T17:10:06;94330.91;;;21.46;40.04
21828;BME280;11076;47.942;11.804;2023-06-04T17:15:09;94335.53;;;21.45;40.65
21828;BME280;11076;47.942;11.804;2023-06-04T17:20:11;94339.66;;;21.38;40.99
21828;BME280;11076;47.942;11.804;2023-06-04T17:25:14;94341.16;;;21.25;41.40
21828;BME280;11076;47.942;11.804;2023-06-04T17:30:19;94337.09;;;21.22;41.47
21828;BME280;11076;47.942;11.804;2023-06-04T17:35:22;94337.44;;;21.16;41.90
21828;BME280;11076;47.942;11.804;2023-06-04T17:40:24;94344.13;;;20.99;42.49
21828;BME280;11076;47.942;11.804;2023-06-04T17:45:28;94344.28;;;20.79;42.86
21828;BME280;11076;47.942;11.804;2023-06-04T17:50:31;94348.53;;;20.51;43.11
21828;BME280;11076;47.942;11.804;2023-06-04T17:55:33;94347.53;;;20.36;43.87
21828;BME280;11076;47.942;11.804;2023-06-04T18:00:36;94348.22;;;20.13;44.50
21828;BME280;11076;47.942;11.804;2023-06-04T18:05:39;94345.59;;;19.92;44.61
21828;BME280;11076;47.942;11.804;2023-06-04T18:10:42;94338.06;;;19.79;45.18
21828;BME280;11076;47.942;11.804;2023-06-04T18:15:44;94350.34;;;19.51;45.89
21828;BME280;11076;47.942;11.804;2023-06-04T18:20:47;94355.50;;;19.32;46.98
21828;BME280;11076;47.942;11.804;2023-06-04T18:25:49;94353.38;;;19.13;47.92
21828;BME280;11076;47.942;11.804;2023-06-04T18:30:52;94362.59;;;18.92;49.01
21828;BME280;11076;47.942;11.804;2023-06-04T18:35:54;94369.38;;;18.79;49.63
21828;BME280;11076;47.942;11.804;2023-06-04T18:40:57;94365.03;;;18.62;50.63
21828;BME280;11076;47.942;11.804;2023-06-04T18:45:59;94369.59;;;18.41;51.07
21828;BME280;11076;47.942;11.804;2023-06-04T18:51:01;94366.31;;;18.29;51.38
21828;BME280;11076;47.942;11.804;2023-06-04T18:56:04;94360.06;;;18.18;51.91
21828;BME280;11076;47.942;11.804;2023-06-04T19:01:06;94372.19;;;18.00;52.70
21828;BME280;11076;47.942;11.804;2023-06-04T19:06:09;94375.59;;;17.80;53.18
21828;BME280;11076;47.942;11.804;2023-06-04T19:11:11;94375.81;;;17.63;53.63
21828;BME280;11076;47.942;11.804;2023-06-04T19:16:14;94372.50;;;17.51;54.06
21828;BME280;11076;47.942;11.804;2023-06-04T19:21:16;94374.81;;;17.32;54.37
21828;BME280;11076;47.942;11.804;2023-06-04T19:26:19;94374.47;;;17.18;54.85
21828;BME280;11076;47.942;11.804;2023-06-04T19:31:22;94393.47;;;16.96;55.36
21828;BME280;11076;47.942;11.804;2023-06-04T19:36:29;94390.47;;;16.87;55.32
21828;BME280;11076;47.942;11.804;2023-06-04T19:41:32;94399.38;;;16.88;55.27
21828;BME280;11076;47.942;11.804;2023-06-04T19:46:34;94400.69;;;16.85;55.39
21828;BME280;11076;47.942;11.804;2023-06-04T19:51:36;94400.31;;;16.77;56.20
21828;BME280;11076;47.942;11.804;2023-06-04T19:56:39;94396.47;;;16.67;57.27
21828;BME280;11076;47.942;11.804;2023-06-04T20:01:41;94394.25;;;16.59;57.82
21828;BME280;11076;47.942;11.804;2023-06-04T20:06:45;94400.34;;;16.49;58.08
21828;BME280;11076;47.942;11.804;2023-06-04T20:11:47;94398.94;;;16.42;58.57
21828;BME280;11076;47.942;11.804;2023-06-04T20:16:50;94401.22;;;16.28;59.33
21828;BME280;11076;47.942;11.804;2023-06-04T20:21:52;94401.47;;;16.26;59.76
21828;BME280;11076;47.942;11.804;2023-06-04T20:26:54;94397.72;;;16.27;59.95
21828;BME280;11076;47.942;11.804;2023-06-04T20:31:59;94411.47;;;16.31;60.18
21828;BME280;11076;47.942;11.804;2023-06-04T20:37:01;94411.22;;;16.33;59.91
21828;BME280;11076;47.942;11.804;2023-06-04T20:42:05;94401.22;;;16.28;60.00
21828;BME280;11076;47.942;11.804;2023-06-04T20:47:08;94407.19;;;16.35;59.66
21828;BME280;11076;47.942;11.804;2023-06-04T20:52:10;94395.25;;;16.26;60.00
21828;BME280;11076;47.942;11.804;2023-06-04T20:57:13;94399.53;;;16.22;60.58
21828;BME280;11076;47.942;11.804;2023-06-04T21:02:15;94396.22;;;16.15;61.45
21828;BME280;11076;47.942;11.804;2023-06-04T21:07:18;94400.97;;;16.07;61.98
21828;BME280;11076;47.942;11.804;2023-06-04T21:12:20;94393.88;;;16.01;62.24
21828;BME280;11076;47.942;11.804;2023-06-04T21:17:22;94401.41;;;15.99;62.36
21828;BME280;11076;47.942;11.804;2023-06-04T21:22:25;94401.88;;;15.91;62.72
21828;BME280;11076;47.942;11.804;2023-06-04T21:27:27;94394.22;;;15.83;63.14
21828;BME280;11076;47.942;11.804;2023-06-04T21:32:30;94393.75;;;15.69;64.19
21828;BME280;11076;47.942;11.804;2023-06-04T21:37:32;94398.13;;;15.53;65.08
21828;BME280;11076;47.942;11.804;2023-06-04T21:42:34;94387.13;;;15.55;64.95
21828;BME280;11076;47.942;11.804;2023-06-04T21:47:37;94392.13;;;15.46;65.49
21828;BME280;11076;47.942;11.804;2023-06-04T21:52:39;94392.28;;;15.39;66.21
21828;BME280;11076;47.942;11.804;2023-06-04T21:57:42;94394.94;;;15.34;66.26
21828;BME280;11076;47.942;11.804;2023-06-04T22:02:44;94391.41;;;15.34;66.14
21828;BME280;11076;47.942;11.804;2023-06-04T22:07:47;94393.38;;;15.21;66.70
21828;BME280;11076;47.942;11.804;2023-06-04T22:12:49;94391.19;;;15.18;66.88
21828;BME280;11076;47.942;11.804;2023-06-04T22:17:52;94391.19;;;15.18;67.04
21828;BME280;11076;47.942;11.804;2023-06-04T22:22:54;94390.22;;;15.07;68.29
21828;BME280;11076;47.942;11.804;2023-06-04T22:27:56;94387.38;;;14.97;68.82
21828;BME280;11076;47.942;11.804;2023-06-04T22:32:59;94388.47;;;14.96;69.24
21828;BME280;11076;47.942;11.804;2023-06-04T22:38:01;94386.81;;;14.95;69.35
21828;BME280;11076;47.942;11.804;2023-06-04T22:43:04;94389.09;;;15.03;69.05
21828;BME280;11076;47.942;11.804;2023-06-04T22:48:08;94387.28;;;14.92;69.13
21828;BME280;11076;47.942;11.804;2023-06-04T22:53:10;94387.69;;;14.84;70.26
21828;BME280;11076;47.942;11.804;2023-06-04T22:58:13;94379.16;;;14.87;70.72
21828;BME280;11076;47.942;11.804;2023-06-04T23:03:16;94388.13;;;14.76;71.33
21828;BME280;11076;47.942;11.804;2023-06-04T23:08:18;94386.97;;;14.71;71.96
21828;BME280;11076;47.942;11.804;2023-06-04T23:13:21;94390.25;;;14.74;72.31
21828;BME280;11076;47.942;11.804;2023-06-04T23:18:23;94385.38;;;14.70;72.64
21828;BME280;11076;47.942;11.804;2023-06-04T23:23:26;94380.78;;;14.71;73.22
21828;BME280;11076;47.942;11.804;2023-06-04T23:28:28;94377.00;;;14.55;73.74
21828;BME280;11076;47.942;11.804;2023-06-04T23:33:30;94368.56;;;14.63;74.34
21828;BME280;11076;47.942;11.804;2023-06-04T23:38:33;94369.94;;;14.66;74.31
21828;BME280;11076;47.942;11.804;2023-06-04T23:43:35;94368.13;;;14.55;75.23
21828;BME280;11076;47.942;11.804;2023-06-04T23:48:38;94365.44;;;14.55;75.94
21828;BME280;11076;47.942;11.804;2023-06-04T23:53:40;94360.38;;;14.58;75.55
21828;BME280;11076;47.942;11.804;2023-06-04T23:58:43;94361.22;;;14.59;75.92
